Time;durP1;ratioP1;P1;durP2;ratioP2;P2;SDS_P1;SDS_P2;PMS_P1;PMS_P2;Temp;Humidity;BMP_temperature;BMP_pressure;BME280_temperature;BME280_humidity;BME280_pressure;Samples;Min_cycle;Max_cycle;Signal;HPM_P1;HPM_P2
2021/08/31 00:02:17;;;;;;;19.33;14.67;;;14.40;99.90;;;;;;6207231;23;21134;-87
2021/08/31 00:04:43;;;;;;;19.13;15.30;;;14.40;99.90;;;;;;6206116;23;20582;-87
2021/08/31 00:07:09;;;;;;;17.47;14.70;;;14.30;99.90;;;;;;6206923;23;20190;-87
2021/08/31 00:09:34;;;;;;;20.67;15.03;;;14.30;99.90;;;;;;6205507;23;20631;-87
2021/08/31 00:12:00;;;;;;;17.37;15.13;;;14.30;99.90;;;;;;6205231;23;20489;-88
2021/08/31 00:14:26;;;;;;;19.13;16.20;;;14.30;99.90;;;;;;6206091;23;20166;-88
2021/08/31 00:16:52;;;;;;;22.13;15.97;;;14.30;99.90;;;;;;6205851;23;20155;-87
2021/08/31 00:19:18;;;;;;;17.27;15.47;;;14.30;99.90;;;;;;6206587;23;20910;-86
2021/08/31 00:21:44;;;;;;;19.10;14.60;;;14.40;99.90;;;;;;6206101;23;20304;-87
2021/08/31 00:24:10;;;;;;;16.93;15.13;;;14.40;99.90;;;;;;6206829;23;20162;-87
2021/08/31 00:26:35;;;;;;;16.43;14.20;;;14.30;99.90;;;;;;6206342;23;20445;-87
2021/08/31 00:29:02;;;;;;;16.10;14.40;;;14.30;99.90;;;;;;6206191;23;20170;-87
2021/08/31 00:31:27;;;;;;;16.57;14.67;;;14.30;99.90;;;;;;6206836;23;20444;-87
2021/08/31 00:33:53;;;;;;;17.53;15.80;;;14.30;99.90;;;;;;6207031;23;20402;-87
2021/08/31 00:36:19;;;;;;;16.93;13.70;;;14.30;99.90;;;;;;6208679;23;20166;-87
2021/08/31 00:38:44;;;;;;;16.03;14.00;;;14.30;99.90;;;;;;6208071;23;20166;-87
2021/08/31 00:41:10;;;;;;;16.20;14.33;;;14.30;99.90;;;;;;6209076;23;20213;-87
2021/08/31 00:43:47;;;;;;;16.57;13.77;;;14.30;99.90;;;;;;6207901;23;20159;-86
2021/08/31 00:46:17;;;;;;;14.67;13.10;;;14.30;99.90;;;;;;6208889;23;20436;-86
2021/08/31 00:48:44;;;;;;;18.30;14.10;;;14.20;99.90;;;;;;6208008;23;20904;-86
2021/08/31 00:51:11;;;;;;;19.13;13.97;;;14.20;99.90;;;;;;6207477;23;20382;-87
2021/08/31 00:53:38;;;;;;;15.07;12.90;;;14.20;99.90;;;;;;6207354;23;20394;-86
2021/08/31 00:56:11;;;;;;;14.70;13.13;;;14.20;99.90;;;;;;6208484;23;20428;-86
2021/08/31 00:58:38;;;;;;;14.00;12.57;;;14.20;99.90;;;;;;6208095;23;20484;-86
2021/08/31 01:01:04;;;;;;;14.30;12.73;;;14.20;99.90;;;;;;6208436;23;21067;-86
2021/08/31 01:03:30;;;;;;;14.07;12.57;;;14.20;99.90;;;;;;6208050;23;20468;-87
2021/08/31 01:06:00;;;;;;;13.47;12.07;;;14.20;99.90;;;;;;6207897;23;20599;-86
2021/08/31 01:08:28;;;;;;;12.30;11.13;;;14.20;99.90;;;;;;6235539;23;20405;-87
2021/08/31 01:10:56;;;;;;;13.50;11.70;;;14.30;99.90;;;;;;6208525;23;20381;-87
2021/08/31 01:13:22;;;;;;;14.40;11.27;;;14.30;99.90;;;;;;6208210;23;20408;-87
2021/08/31 01:15:49;;;;;;;11.93;10.73;;;14.30;99.90;;;;;;6208774;23;20951;-86
2021/08/31 01:18:21;;;;;;;13.97;11.57;;;14.40;99.90;;;;;;6208380;23;20425;-86
2021/08/31 01:20:50;;;;;;;12.63;11.13;;;14.40;99.90;;;;;;6208452;23;20428;-86
2021/08/31 01:23:16;;;;;;;13.17;11.90;;;14.30;99.90;;;;;;6208026;23;20477;-86
2021/08/31 01:25:43;;;;;;;11.70;10.60;;;14.30;99.90;;;;;;6207659;23;20510;-87
2021/08/31 01:28:15;;;;;;;12.80;11.40;;;14.30;99.90;;;;;;6209818;23;20890;-86
2021/08/31 01:30:42;;;;;;;12.67;11.47;;;14.30;99.90;;;;;;6208353;23;21105;-86
2021/08/31 01:33:09;;;;;;;12.87;10.90;;;14.40;99.90;;;;;;6208224;23;20918;-86
2021/08/31 01:35:35;;;;;;;13.67;12.23;;;14.30;99.90;;;;;;6207821;23;20437;-87
2021/08/31 01:38:01;;;;;;;13.83;12.23;;;14.30;99.90;;;;;;6209151;23;20402;-87
2021/08/31 01:40:27;;;;;;;13.07;11.53;;;14.30;99.90;;;;;;6208860;23;20405;-87
2021/08/31 01:42:53;;;;;;;12.10;10.90;;;14.30;99.90;;;;;;6209783;23;20394;-87
2021/08/31 01:45:18;;;;;;;13.43;11.90;;;14.30;99.90;;;;;;6208732;23;20162;-87
2021/08/31 01:47:44;;;;;;;14.70;12.90;;;14.30;99.90;;;;;;6206568;23;20258;-87
2021/08/31 01:50:10;;;;;;;13.67;12.27;;;14.30;99.90;;;;;;6207144;23;20481;-86
2021/08/31 01:52:37;;;;;;;15.63;13.33;;;14.30;99.90;;;;;;6207020;23;20163;-86
2021/08/31 01:55:04;;;;;;;14.40;12.60;;;14.30;99.90;;;;;;6207626;23;20398;-86
2021/08/31 01:57:30;;;;;;;14.37;12.97;;;14.30;99.90;;;;;;6208698;23;20425;-86
2021/08/31 01:59:55;;;;;;;15.27;12.90;;;14.40;99.90;;;;;;6208731;23;20942;-87
2021/08/31 02:02:22;;;;;;;15.30;13.70;;;14.30;99.90;;;;;;6208872;23;20183;-87
2021/08/31 02:04:48;;;;;;;14.47;12.97;;;14.30;99.90;;;;;;6208094;23;20409;-87
2021/08/31 02:07:13;;;;;;;16.23;13.47;;;14.30;99.90;;;;;;6208103;23;20214;-87
2021/08/31 02:09:39;;;;;;;15.03;12.87;;;14.30;99.90;;;;;;6208304;23;20169;-87
2021/08/31 02:12:05;;;;;;;16.30;13.23;;;14.30;99.90;;;;;;6209356;23;20158;-87
2021/08/31 02:14:31;;;;;;;15.67;13.90;;;14.20;99.90;;;;;;6209186;23;20532;-87
2021/08/31 02:16:56;;;;;;;15.87;14.27;;;14.30;99.90;;;;;;6207654;23;20386;-87
2021/08/31 02:19:22;;;;;;;16.77;13.80;;;14.30;99.90;;;;;;6207443;23;20188;-87
2021/08/31 02:21:48;;;;;;;17.00;14.93;;;14.30;99.90;;;;;;6207846;23;20170;-87
2021/08/31 02:24:14;;;;;;;17.73;13.73;;;14.30;99.90;;;;;;6209216;23;20744;-87
2021/08/31 02:26:39;;;;;;;16.73;14.33;;;14.30;99.90;;;;;;6207322;23;20233;-87
2021/08/31 02:29:05;;;;;;;14.97;13.37;;;14.30;99.90;;;;;;6207588;23;20187;-87
2021/08/31 02:31:31;;;;;;;16.63;13.60;;;14.30;99.90;;;;;;6207931;23;20202;-87
2021/08/31 02:33:56;;;;;;;16.93;14.43;;;14.30;99.90;;;;;;6208677;23;20159;-87
2021/08/31 02:36:22;;;;;;;16.20;14.30;;;14.30;99.90;;;;;;6209167;23;20606;-87
2021/08/31 02:38:48;;;;;;;14.60;12.70;;;14.30;99.90;;;;;;6208031;23;20170;-87
2021/08/31 02:41:13;;;;;;;17.87;13.73;;;14.30;99.90;;;;;;6209182;23;20158;-87
2021/08/31 02:43:39;;;;;;;18.70;15.03;;;14.30;99.90;;;;;;6208016;23;20250;-87
2021/08/31 02:46:05;;;;;;;15.10;13.37;;;14.30;99.90;;;;;;6206505;23;20213;-87
2021/08/31 02:48:30;;;;;;;15.23;13.67;;;14.30;99.90;;;;;;6205733;23;20246;-87
2021/08/31 02:50:56;;;;;;;15.07;13.53;;;14.30;99.90;;;;;;6206356;23;20155;-87
2021/08/31 02:53:22;;;;;;;16.47;14.03;;;14.30;99.90;;;;;;6208286;23;20170;-87
2021/08/31 02:55:47;;;;;;;14.50;13.00;;;14.40;99.90;;;;;;6207125;23;20605;-87
2021/08/31 02:58:13;;;;;;;15.47;13.63;;;14.30;99.90;;;;;;6207000;23;20165;-87
2021/08/31 03:00:42;;;;;;;15.67;14.00;;;14.30;99.90;;;;;;6206477;23;20711;-87
2021/08/31 03:03:09;;;;;;;14.70;13.10;;;14.30;99.90;;;;;;6207240;23;20155;-87
2021/08/31 03:05:35;;;;;;;14.03;12.53;;;14.20;99.90;;;;;;6208334;23;20449;-87
2021/08/31 03:08:01;;;;;;;14.53;13.07;;;14.10;99.90;;;;;;6206837;23;20401;-86
2021/08/31 03:10:26;;;;;;;15.77;14.17;;;14.10;99.90;;;;;;6206511;23;20394;-87
2021/08/31 03:12:52;;;;;;;16.63;14.80;;;14.10;99.90;;;;;;6207920;23;20194;-87
2021/08/31 03:15:18;;;;;;;16.70;14.70;;;14.10;99.90;;;;;;6207206;23;20238;-87
2021/08/31 03:17:43;;;;;;;17.10;15.30;;;14.10;99.90;;;;;;6206599;23;20313;-87
2021/08/31 03:20:09;;;;;;;17.80;15.53;;;14.10;99.90;;;;;;6207445;23;20192;-87
2021/08/31 03:22:35;;;;;;;15.73;14.13;;;14.10;99.90;;;;;;6207544;23;20178;-87
2021/08/31 03:25:01;;;;;;;16.73;14.77;;;14.00;99.90;;;;;;6207868;23;20688;-87
2021/08/31 03:27:27;;;;;;;18.13;15.40;;;14.10;99.90;;;;;;6207141;23;20438;-88
2021/08/31 03:29:52;;;;;;;19.97;15.80;;;14.10;99.90;;;;;;6208001;23;20557;-88
2021/08/31 03:32:18;;;;;;;16.27;14.00;;;14.10;99.90;;;;;;6207461;23;20163;-88
2021/08/31 03:34:46;;;;;;;19.13;15.93;;;14.10;99.90;;;;;;6207992;23;20251;-88
2021/08/31 03:37:11;;;;;;;16.60;14.60;;;14.10;99.90;;;;;;6207854;23;20173;-87
2021/08/31 03:39:37;;;;;;;17.73;14.70;;;14.10;99.90;;;;;;6207240;23;20394;-87
2021/08/31 03:42:06;;;;;;;15.67;13.90;;;14.10;99.90;;;;;;6206973;23;20269;-88
2021/08/31 03:44:32;;;;;;;17.50;15.30;;;14.10;99.90;;;;;;6207195;23;20166;-88
2021/08/31 03:46:57;;;;;;;17.37;13.70;;;14.10;99.90;;;;;;6206531;23;20795;-88
2021/08/31 03:49:23;;;;;;;19.63;15.40;;;14.10;99.90;;;;;;6208224;23;20173;-87
2021/08/31 03:51:48;;;;;;;17.80;15.90;;;14.10;99.90;;;;;;6206438;23;20162;-87
2021/08/31 03:54:14;;;;;;;17.90;14.67;;;14.10;99.90;;;;;;6208035;23;20213;-87
2021/08/31 03:56:40;;;;;;;17.23;15.40;;;14.10;99.90;;;;;;6207017;23;20166;-87
2021/08/31 03:59:06;;;;;;;17.57;15.67;;;14.10;99.90;;;;;;6207850;23;20205;-87
2021/08/31 04:01:31;;;;;;;19.93;15.50;;;14.10;99.90;;;;;;6206764;23;20166;-87
2021/08/31 04:03:57;;;;;;;20.23;16.97;;;14.00;99.90;;;;;;6207183;23;20165;-87
2021/08/31 04:06:23;;;;;;;20.23;16.63;;;13.90;99.90;;;;;;6207795;23;20692;-88
2021/08/31 04:09:04;;;;;;;22.87;17.07;;;13.90;99.90;;;;;;6207319;23;20170;-87
2021/08/31 04:11:29;;;;;;;25.30;17.07;;;13.70;99.90;;;;;;6207408;23;20195;-87
2021/08/31 04:13:55;;;;;;;20.03;17.77;;;13.60;99.90;;;;;;6210651;23;20899;-87
2021/08/31 04:16:21;;;;;;;21.53;17.10;;;13.60;99.90;;;;;;6209885;23;20260;-87
2021/08/31 04:18:46;;;;;;;21.83;18.10;;;13.50;99.90;;;;;;6210693;23;20182;-86
2021/08/31 04:21:12;;;;;;;23.73;17.30;;;13.50;99.90;;;;;;6210593;23;20158;-87
2021/08/31 04:23:38;;;;;;;20.50;18.27;;;13.50;99.90;;;;;;6210499;23;20159;-86
2021/08/31 04:26:03;;;;;;;18.80;16.90;;;13.50;99.90;;;;;;6209524;23;20190;-86
2021/08/31 04:28:29;;;;;;;21.37;17.73;;;13.50;99.90;;;;;;6210599;23;20174;-87
2021/08/31 04:30:55;;;;;;;21.27;17.77;;;13.50;99.90;;;;;;6209961;23;20154;-86
2021/08/31 04:33:20;;;;;;;23.90;19.03;;;13.60;99.90;;;;;;6210482;23;20655;-86
2021/08/31 04:35:46;;;;;;;21.93;18.30;;;13.60;99.90;;;;;;6212125;23;20188;-85
2021/08/31 04:38:13;;;;;;;21.27;17.93;;;13.60;99.90;;;;;;6209493;23;20155;-86
2021/08/31 04:40:39;;;;;;;20.73;17.77;;;13.60;99.90;;;;;;6210078;23;20163;-86
2021/08/31 04:43:04;;;;;;;21.30;17.90;;;13.70;99.90;;;;;;6210472;23;20398;-86
2021/08/31 04:45:30;;;;;;;25.13;18.33;;;13.70;99.90;;;;;;6210704;23;20163;-87
2021/08/31 04:47:56;;;;;;;22.50;18.37;;;13.70;99.90;;;;;;6211136;23;20312;-87
2021/08/31 04:50:21;;;;;;;20.83;17.00;;;13.80;99.90;;;;;;6209820;23;20228;-87
2021/08/31 04:52:47;;;;;;;20.43;17.43;;;13.80;99.90;;;;;;6210941;23;20163;-87
2021/08/31 04:55:13;;;;;;;19.53;17.50;;;13.90;99.90;;;;;;6209987;23;20169;-87
2021/08/31 04:57:39;;;;;;;20.40;17.57;;;13.90;99.90;;;;;;6210545;23;20469;-87
2021/08/31 05:00:05;;;;;;;20.23;16.43;;;14.00;99.90;;;;;;6210910;23;20171;-87
2021/08/31 05:02:33;;;;;;;22.20;18.33;;;14.00;99.90;;;;;;6209882;23;20158;-86
2021/08/31 05:04:58;;;;;;;19.70;16.87;;;14.00;99.90;;;;;;6211124;23;20436;-87
2021/08/31 05:07:24;;;;;;;18.60;15.70;;;14.10;99.90;;;;;;6210765;23;20437;-87
2021/08/31 05:09:49;;;;;;;19.90;16.00;;;14.10;99.90;;;;;;6211182;23;20170;-87
2021/08/31 05:12:15;;;;;;;19.60;15.50;;;14.20;99.90;;;;;;6211388;23;20154;-87
2021/08/31 05:14:41;;;;;;;19.77;16.03;;;14.20;99.90;;;;;;6211067;23;20224;-87
2021/08/31 05:17:06;;;;;;;20.23;16.70;;;14.20;99.90;;;;;;6211054;23;20162;-87
2021/08/31 05:19:33;;;;;;;19.87;17.80;;;14.20;99.90;;;;;;6209060;23;20244;-87
2021/08/31 05:22:04;;;;;;;19.70;16.90;;;14.20;99.90;;;;;;6210815;23;20163;-88
2021/08/31 05:24:33;;;;;;;19.33;15.47;;;14.20;99.90;;;;;;6211212;23;20396;-86
2021/08/31 05:26:59;;;;;;;18.73;16.10;;;14.20;99.90;;;;;;6210775;23;20441;-87
2021/08/31 05:29:24;;;;;;;21.17;16.90;;;14.20;99.90;;;;;;6210554;23;20394;-86
2021/08/31 05:31:50;;;;;;;19.17;16.20;;;14.30;99.90;;;;;;6212091;23;20167;-89
2021/08/31 05:34:16;;;;;;;20.30;16.77;;;14.40;99.90;;;;;;6211458;23;20163;-90
2021/08/31 05:36:44;;;;;;;22.50;17.97;;;14.40;99.90;;;;;;6210980;23;20624;-90
2021/08/31 05:39:18;;;;;;;19.13;16.83;;;14.30;99.90;;;;;;6238695;23;20166;-89
2021/08/31 05:41:46;;;;;;;21.37;18.53;;;14.40;99.90;;;;;;6210594;23;20977;-89
2021/08/31 05:44:14;;;;;;;22.97;17.50;;;14.40;99.90;;;;;;6210182;23;20188;-89
2021/08/31 05:46:45;;;;;;;19.63;16.87;;;14.40;99.90;;;;;;6209961;23;20449;-89
2021/08/31 05:49:16;;;;;;;20.87;17.63;;;14.40;99.90;;;;;;6236470;23;20939;-89
2021/08/31 05:51:42;;;;;;;20.10;17.90;;;14.40;99.90;;;;;;6211629;23;20743;-90
2021/08/31 05:54:09;;;;;;;20.20;17.70;;;14.40;99.90;;;;;;6212004;23;20904;-90
2021/08/31 05:56:35;;;;;;;22.10;17.57;;;14.40;99.90;;;;;;6211556;23;20257;-90
2021/08/31 05:59:01;;;;;;;20.97;18.00;;;14.40;99.90;;;;;;6211601;23;20950;-89
2021/08/31 06:01:27;;;;;;;22.90;16.97;;;14.30;99.90;;;;;;6210393;23;20430;-89
2021/08/31 06:03:52;;;;;;;18.60;16.50;;;14.30;99.90;;;;;;6187420;23;20198;-90
2021/08/31 06:06:24;;;;;;;19.03;16.80;;;14.40;99.90;;;;;;6212054;23;20183;-91
2021/08/31 06:08:50;;;;;;;20.73;17.50;;;14.40;99.90;;;;;;6217112;23;20166;-91
2021/08/31 06:11:18;;;;;;;18.80;16.80;;;14.30;99.90;;;;;;6209363;23;20439;-91
2021/08/31 06:13:44;;;;;;;19.90;16.70;;;14.20;99.90;;;;;;6212606;23;20498;-90
2021/08/31 06:16:10;;;;;;;19.37;17.23;;;14.20;99.90;;;;;;6211072;23;20397;-90
2021/08/31 06:18:36;;;;;;;19.13;17.00;;;14.20;99.90;;;;;;6211431;23;20413;-90
2021/08/31 06:21:01;;;;;;;18.00;16.10;;;14.20;99.90;;;;;;6210941;23;20166;-89
2021/08/31 06:23:27;;;;;;;23.63;16.93;;;14.30;99.90;;;;;;6210937;23;20163;-90
2021/08/31 06:25:53;;;;;;;21.43;17.53;;;14.30;99.90;;;;;;6209632;23;20282;-89
2021/08/31 06:28:19;;;;;;;20.70;16.67;;;14.40;99.90;;;;;;6210934;23;20398;-90
2021/08/31 06:30:44;;;;;;;22.43;17.00;;;14.40;99.90;;;;;;6211227;23;20155;-91
2021/08/31 06:33:10;;;;;;;18.27;15.93;;;14.50;99.90;;;;;;6211511;23;20165;-91
2021/08/31 06:35:36;;;;;;;18.90;16.90;;;14.50;99.90;;;;;;6212745;23;20167;-91
2021/08/31 06:38:02;;;;;;;16.50;14.77;;;14.60;99.90;;;;;;6210417;23;20612;-90
2021/08/31 06:40:27;;;;;;;19.17;17.20;;;14.60;99.90;;;;;;6207438;23;20166;-90
2021/08/31 06:42:53;;;;;;;20.63;15.83;;;14.60;99.90;;;;;;6210419;23;20398;-90
2021/08/31 06:45:19;;;;;;;17.37;15.57;;;14.70;99.90;;;;;;6211703;23;20480;-91
2021/08/31 06:48:11;;;;;;;15.83;14.20;;;14.80;99.90;;;;;;6210132;23;20285;-90
2021/08/31 06:50:37;;;;;;;16.20;14.47;;;15.00;99.90;;;;;;6209569;23;20167;-91
2021/08/31 06:53:09;;;;;;;17.37;14.63;;;15.30;99.90;;;;;;6238221;23;20736;-93
2021/08/31 06:55:46;;;;;;;15.40;13.90;;;15.30;99.90;;;;;;6208476;23;20398;-91
2021/08/31 06:58:17;;;;;;;15.73;14.23;;;15.40;99.90;;;;;;6237299;23;20426;-90
2021/08/31 07:00:55;;;;;;;16.60;13.87;;;15.50;99.90;;;;;;6237739;23;20485;-89
2021/08/31 07:03:21;;;;;;;16.23;14.53;;;15.80;99.90;;;;;;6204589;23;20413;-89
2021/08/31 07:05:47;;;;;;;15.60;14.10;;;15.90;99.90;;;;;;6237969;23;21053;-90
2021/08/31 07:08:12;;;;;;;15.50;14.00;;;16.00;99.90;;;;;;6211545;23;20171;-91
2021/08/31 07:10:39;;;;;;;15.27;13.63;;;16.10;99.90;;;;;;6210090;23;20174;-90
2021/08/31 07:13:04;;;;;;;14.93;13.43;;;16.20;99.90;;;;;;6210370;23;21433;-90
2021/08/31 07:15:30;;;;;;;15.30;13.73;;;16.20;99.90;;;;;;6184855;23;20402;-90
2021/08/31 07:17:56;;;;;;;14.00;12.60;;;15.90;99.90;;;;;;6210244;23;20252;-90
2021/08/31 07:20:22;;;;;;;15.10;13.60;;;15.90;99.90;;;;;;6210847;23;20193;-91
2021/08/31 07:22:50;;;;;;;14.50;13.07;;;16.20;99.90;;;;;;6210660;23;20163;-93
2021/08/31 07:25:17;;;;;;;16.73;13.73;;;16.20;99.90;;;;;;6209470;23;20208;-89
2021/08/31 07:27:43;;;;;;;14.17;12.80;;;16.30;99.90;;;;;;6208570;23;20441;-91
2021/08/31 07:30:12;;;;;;;12.73;11.43;;;16.50;99.90;;;;;;6209335;23;20491;-87
2021/08/31 07:32:38;;;;;;;13.73;12.43;;;16.40;99.90;;;;;;6185117;23;20170;-85
2021/08/31 07:35:04;;;;;;;14.27;12.73;;;16.70;99.90;;;;;;6207394;23;20715;-86
2021/08/31 07:37:31;;;;;;;13.00;11.80;;;16.90;99.90;;;;;;6209904;23;20217;-86
2021/08/31 07:39:57;;;;;;;15.83;14.40;;;16.90;99.90;;;;;;6210868;23;20401;-86
2021/08/31 07:42:23;;;;;;;17.13;15.67;;;17.00;99.90;;;;;;6183582;23;20429;-86
2021/08/31 07:44:49;;;;;;;15.80;14.37;;;17.10;99.90;;;;;;6207647;23;20224;-86
2021/08/31 07:47:15;;;;;;;12.53;11.20;;;17.20;99.90;;;;;;6208899;23;20584;-85
2021/08/31 07:49:41;;;;;;;11.20;10.17;;;17.00;99.90;;;;;;6209204;23;20166;-86
2021/08/31 07:52:07;;;;;;;11.53;10.50;;;16.90;99.90;;;;;;6209583;23;20817;-86
2021/08/31 07:54:33;;;;;;;11.17;10.17;;;16.90;99.90;;;;;;6210202;23;20392;-87
2021/08/31 07:56:59;;;;;;;11.80;10.60;;;16.30;99.90;;;;;;6210140;23;20771;-88
2021/08/31 07:59:25;;;;;;;11.30;10.20;;;16.20;99.90;;;;;;6209008;23;20432;-91
2021/08/31 08:01:51;;;;;;;10.27;9.17;;;16.60;99.90;;;;;;6209138;23;20417;-90
2021/08/31 08:04:20;;;;;;;11.40;10.30;;;16.80;99.90;;;;;;6184570;23;20401;-88
2021/08/31 08:06:45;;;;;;;11.53;10.53;;;16.50;99.90;;;;;;6206367;23;20445;-90
2021/08/31 08:09:14;;;;;;;12.37;11.17;;;16.50;99.90;;;;;;6209927;23;20875;-91
2021/08/31 08:11:39;;;;;;;12.03;10.83;;;16.40;99.90;;;;;;6199004;23;20167;-90
2021/08/31 08:14:05;;;;;;;11.80;10.60;;;16.50;99.90;;;;;;6200845;23;20420;-87
2021/08/31 08:16:31;;;;;;;13.60;10.27;;;16.60;99.90;;;;;;6203650;23;20231;-89
2021/08/31 08:18:57;;;;;;;13.43;12.03;;;16.30;99.90;;;;;;6208035;23;20328;-88
2021/08/31 08:21:22;;;;;;;13.43;10.87;;;16.30;99.90;;;;;;6205629;23;20170;-88
2021/08/31 08:23:50;;;;;;;13.57;12.27;;;16.20;99.90;;;;;;6205696;23;20165;-88
2021/08/31 08:26:16;;;;;;;12.27;11.07;;;16.40;99.90;;;;;;6207388;23;20191;-88
2021/08/31 08:28:42;;;;;;;12.20;11.10;;;16.30;99.90;;;;;;6208564;23;20456;-88
2021/08/31 08:31:16;;;;;;;11.10;10.00;;;16.10;99.90;;;;;;6207075;23;20213;-88
2021/08/31 08:33:42;;;;;;;12.03;10.83;;;16.20;99.90;;;;;;6204929;23;20592;-88
2021/08/31 08:36:09;;;;;;;10.40;9.43;;;16.50;99.90;;;;;;6209252;23;20385;-87
2021/08/31 08:38:37;;;;;;;11.13;10.03;;;16.90;99.90;;;;;;6233808;23;20167;-88
2021/08/31 08:41:23;;;;;;;14.73;10.23;;;17.00;99.90;;;;;;6207601;23;20402;-89
2021/08/31 08:43:48;;;;;;;11.13;10.13;;;17.20;99.90;;;;;;6208857;23;20393;-88
2021/08/31 08:46:14;;;;;;;10.90;9.57;;;17.30;99.90;;;;;;6208221;23;20767;-89
2021/08/31 08:48:45;;;;;;;11.20;10.13;;;16.90;99.90;;;;;;6236420;23;20680;-87
2021/08/31 08:51:12;;;;;;;11.67;10.07;;;16.50;99.90;;;;;;6227834;23;20429;-88
2021/08/31 08:53:42;;;;;;;11.00;9.43;;;16.50;99.90;;;;;;6205359;23;20485;-89
2021/08/31 08:56:09;;;;;;;9.93;9.00;;;16.70;99.90;;;;;;6233698;23;20381;-87
2021/08/31 08:58:37;;;;;;;11.40;10.27;;;16.90;99.90;;;;;;6232807;23;20394;-87
2021/08/31 09:01:08;;;;;;;11.03;9.37;;;16.80;99.90;;;;;;6209854;23;20471;-88
2021/08/31 09:03:37;;;;;;;10.97;9.97;;;16.80;99.90;;;;;;6234248;23;20385;-90
2021/08/31 09:06:19;;;;;;;10.57;9.47;;;17.10;99.90;;;;;;6209633;23;20482;-88
2021/08/31 09:08:56;;;;;;;9.87;9.00;;;17.30;99.90;;;;;;6210238;23;20390;-88
2021/08/31 09:11:35;;;;;;;10.50;9.50;;;17.50;99.90;;;;;;6234600;23;20768;-89
2021/08/31 09:14:45;;;;;;;8.67;7.77;;;17.80;99.90;;;;;;6235066;23;20390;-89
2021/08/31 09:17:11;;;;;;;10.23;9.27;;;18.20;99.90;;;;;;6235841;23;20425;-90
2021/08/31 09:19:43;;;;;;;10.97;8.80;;;18.60;99.90;;;;;;6264294;22;20404;-88
2021/08/31 09:22:22;;;;;;;9.87;9.00;;;18.20;99.90;;;;;;6265552;22;20427;-89
2021/08/31 09:25:14;;;;;;;9.30;8.40;;;18.20;99.90;;;;;;6266590;22;20404;-88
2021/08/31 09:27:50;;;;;;;9.13;8.33;;;18.80;99.90;;;;;;6260513;22;20523;-88
2021/08/31 09:30:31;;;;;;;9.30;8.40;;;19.20;99.90;;;;;;6265805;22;20400;-88
2021/08/31 09:33:09;;;;;;;9.40;8.60;;;19.70;99.90;;;;;;6266491;22;20397;-87
2021/08/31 09:35:41;;;;;;;9.30;8.27;;;20.10;99.90;;;;;;6266570;22;20717;-89
2021/08/31 09:38:20;;;;;;;8.97;8.10;;;20.50;99.90;;;;;;6262839;22;20396;-92
2021/08/31 09:40:49;;;;;;;8.67;7.77;;;20.00;99.90;;;;;;6266000;22;20925;-91
2021/08/31 09:43:18;;;;;;;8.43;7.63;;;19.90;99.90;;;;;;6266303;22;20401;-89
2021/08/31 09:45:49;;;;;;;9.20;8.43;;;19.40;99.90;;;;;;6263920;22;20436;-92
2021/08/31 09:48:17;;;;;;;10.40;8.03;;;19.00;99.90;;;;;;6267690;22;20413;-91
2021/08/31 09:50:56;;;;;;;7.37;6.60;;;19.50;99.90;;;;;;6266330;22;20393;-92
2021/08/31 09:53:24;;;;;;;8.30;7.50;;;20.20;99.90;;;;;;6266776;22;20408;-91
2021/08/31 09:56:04;;;;;;;8.03;7.27;;;19.90;99.90;;;;;;6266044;22;20397;-90
2021/08/31 09:58:32;;;;;;;9.27;8.47;;;19.00;99.90;;;;;;6264474;22;20392;-90
2021/08/31 10:00:59;;;;;;;8.03;7.30;;;18.60;99.90;;;;;;6265159;22;20404;-91
2021/08/31 10:03:26;;;;;;;8.37;7.67;;;19.20;99.90;;;;;;6266857;22;20423;-91
2021/08/31 10:05:58;;;;;;;8.03;7.30;;;20.10;99.90;;;;;;6265741;22;20513;-91
2021/08/31 10:08:25;;;;;;;8.63;7.93;;;20.20;99.90;;;;;;6267434;22;20401;-90
2021/08/31 10:10:56;;;;;;;8.23;7.53;;;19.80;99.90;;;;;;6260944;22;20392;-90
2021/08/31 10:14:02;;;;;;;7.23;6.53;;;19.40;99.90;;;;;;6266872;22;20393;-91
2021/08/31 10:16:28;;;;;;;7.63;6.93;;;20.20;99.90;;;;;;6242667;22;20424;-93
2021/08/31 10:18:55;;;;;;;8.30;7.60;;;20.40;99.90;;;;;;6264355;22;20822;-91
2021/08/31 10:21:23;;;;;;;7.77;7.07;;;20.70;99.90;;;;;;6263239;22;20393;-93
2021/08/31 10:23:50;;;;;;;8.00;7.20;;;20.80;99.90;;;;;;6267331;22;20688;-92
2021/08/31 10:26:45;;;;;;;7.70;7.00;;;20.70;99.90;;;;;;6267138;22;20722;-91
2021/08/31 10:29:32;;;;;;;;;;;;;;;;;;;;;
2021/08/31 10:32:09;;;;;;;7.53;6.83;;;19.40;99.90;;;;;;6272999;22;20464;-93
2021/08/31 10:34:44;;;;;;;8.60;7.53;;;19.30;99.90;;;;;;6267899;22;20419;-92
2021/08/31 10:37:16;;;;;;;7.20;6.60;;;19.20;99.90;;;;;;6263458;22;20439;-93
2021/08/31 10:39:51;;;;;;;7.50;6.90;;;19.00;99.90;;;;;;6264855;22;20499;-90
2021/08/31 10:42:29;;;;;;;8.40;7.00;;;18.70;99.90;;;;;;6266060;22;20411;-94
2021/08/31 10:44:59;;;;;;;8.93;6.70;;;18.60;99.90;;;;;;6241423;22;20879;-91
2021/08/31 10:47:52;;;;;;;8.50;7.63;;;18.60;99.90;;;;;;6270857;22;20710;-96
2021/08/31 10:50:23;;;;;;;8.97;7.63;;;18.00;99.90;;;;;;6266369;22;21005;-94
2021/08/31 10:53:05;;;;;;;9.03;7.93;;;17.70;99.90;;;;;;6266359;22;20458;-94
2021/08/31 10:55:35;;;;;;;10.43;7.67;;;17.90;99.90;;;;;;6266676;22;20405;-95
2021/08/31 10:58:06;;;;;;;7.23;6.50;;;18.30;99.90;;;;;;6265522;22;20778;-94
2021/08/31 11:00:32;;;;;;;8.07;7.37;;;18.50;99.90;;;;;;6266137;22;20393;-94
2021/08/31 11:03:10;;;;;;;7.97;7.27;;;18.50;99.90;;;;;;6264876;22;20392;-93
2021/08/31 11:05:36;;;;;;;7.60;6.90;;;18.10;99.90;;;;;;6266271;22;20763;-93
2021/08/31 11:08:02;;;;;;;7.60;6.67;;;18.30;99.90;;;;;;6265268;22;20657;-92
2021/08/31 11:10:33;;;;;;;7.07;6.47;;;18.50;99.90;;;;;;6240392;22;20227;-92
2021/08/31 11:13:11;;;;;;;8.20;6.23;;;18.70;99.90;;;;;;6266269;22;20672;-94
2021/08/31 11:15:38;;;;;;;7.27;6.67;;;18.60;99.90;;;;;;6266618;22;20806;-93
2021/08/31 11:18:14;;;;;;;6.70;6.10;;;18.70;99.90;;;;;;6265505;22;20413;-91
2021/08/31 11:20:52;;;;;;;6.67;6.03;;;18.90;99.90;;;;;;6265119;22;20396;-93
2021/08/31 11:23:22;;;;;;;5.73;5.33;;;19.00;99.90;;;;;;6266901;22;20407;-93
2021/08/31 11:26:02;;;;;;;6.97;6.20;;;19.50;99.90;;;;;;6266374;22;20924;-93
2021/08/31 11:28:33;;;;;;;6.67;5.93;;;19.70;99.90;;;;;;6265088;22;20476;-93
2021/08/31 11:31:12;;;;;;;5.90;5.40;;;19.80;99.90;;;;;;6265585;22;20389;-93
2021/08/31 11:33:43;;;;;;;8.13;6.20;;;19.80;99.90;;;;;;6267479;22;20492;-94
2021/08/31 11:36:18;;;;;;;6.13;5.63;;;19.60;99.90;;;;;;6265521;22;20743;-94
2021/08/31 11:38:47;;;;;;;5.37;4.90;;;19.70;99.90;;;;;;6236208;22;20408;-94
2021/08/31 11:41:38;;;;;;;5.70;5.20;;;20.00;99.90;;;;;;6239959;22;20603;-93
2021/08/31 11:44:07;;;;;;;5.50;5.00;;;20.30;99.90;;;;;;6265511;22;20914;-94
2021/08/31 11:46:36;;;;;;;5.67;5.17;;;20.50;99.90;;;;;;6234441;22;20749;-92
2021/08/31 11:49:18;;;;;;;5.87;5.37;;;20.70;99.90;;;;;;6265716;22;20456;-93
2021/08/31 11:52:06;;;;;;;5.77;5.27;;;21.00;99.90;;;;;;6239041;22;20396;-93
2021/08/31 11:54:43;;;;;;;6.40;5.90;;;20.70;99.90;;;;;;6265594;22;20401;-92
2021/08/31 11:57:28;;;;;;;5.90;5.40;;;20.20;99.90;;;;;;6264342;22;20464;-92
2021/08/31 11:59:54;;;;;;;6.27;5.20;;;20.10;99.90;;;;;;6237865;22;20396;-92
2021/08/31 12:02:22;;;;;;;4.87;4.47;;;20.00;99.90;;;;;;6264845;22;20393;-92
2021/08/31 12:04:57;;;;;;;6.07;5.57;;;19.80;99.90;;;;;;6264764;22;20165;-92
2021/08/31 12:07:47;;;;;;;5.20;4.70;;;19.90;99.90;;;;;;6239683;22;20393;-94
2021/08/31 12:10:19;;;;;;;6.23;5.67;;;20.50;99.90;;;;;;6238033;22;20388;-96
2021/08/31 12:12:54;;;;;;;6.83;6.23;;;20.70;99.90;;;;;;6275430;22;20476;-90
2021/08/31 12:15:24;;;;;;;6.53;5.40;;;20.90;99.90;;;;;;6263904;22;20459;-85
2021/08/31 12:18:00;;;;;;;6.23;5.53;;;21.10;99.90;;;;;;6264474;22;20440;-85
2021/08/31 12:20:26;;;;;;;5.60;5.00;;;21.60;99.90;;;;;;6238077;22;20548;-85
2021/08/31 12:22:58;;;;;;;8.60;6.13;;;21.80;99.90;;;;;;6238741;22;20396;-85
2021/08/31 12:25:27;;;;;;;6.97;5.20;;;21.20;99.90;;;;;;6265186;22;20169;-86
2021/08/31 12:28:02;;;;;;;5.80;5.23;;;20.40;99.90;;;;;;6259544;22;20405;-85
2021/08/31 12:30:40;;;;;;;6.07;5.57;;;19.90;99.90;;;;;;6263867;22;20621;-85
2021/08/31 12:33:06;;;;;;;6.50;5.87;;;20.00;99.90;;;;;;6264463;22;20423;-85
2021/08/31 12:35:42;;;;;;;5.60;5.10;;;20.20;99.90;;;;;;6266582;22;20392;-85
2021/08/31 12:38:21;;;;;;;6.13;5.53;;;20.60;99.90;;;;;;6267193;22;20408;-85
2021/08/31 12:40:58;;;;;;;6.53;5.93;;;21.00;99.90;;;;;;6241433;22;20424;-85
2021/08/31 12:43:41;;;;;;;17.27;6.17;;;20.80;99.90;;;;;;6241772;22;20462;-85